Terminal Aerodrome Forecast
Issued by NWS

Home | Current Version | Previous Version | Graphics & Text | Print | Product List | Glossary On
Versions: 1 2 3 4 5 6 7 8 9 10 11 12 13 14 15 16 17 18 19
514
FTUS43 KABR 200224 AAA
TAFPIR
TAF AMD
KPIR 200224Z 2002/2024 11005KT P6SM FEW250
     FM200700 05005KT P6SM FEW250
     FM200800 34006KT P6SM SCT250
     FM201200 03009KT P6SM SCT250=

USA.gov is the U.S. government's official web portal to all federal, state and local government web resources and services.